createdAt,value
2019-01-12T00:01:11.636Z,5.80
2019-01-12T00:03:40.263Z,6.53
2019-01-12T00:06:08.845Z,6.30
2019-01-12T00:08:37.292Z,5.60
2019-01-12T00:11:05.909Z,6.30
2019-01-12T00:13:34.308Z,6.27
2019-01-12T00:16:02.973Z,6.13
2019-01-12T00:18:31.454Z,5.40
2019-01-12T00:20:59.931Z,6.40
2019-01-12T00:23:28.415Z,5.80
2019-01-12T00:25:57.101Z,6.90
2019-01-12T00:28:25.579Z,5.70
2019-01-12T00:30:54.371Z,5.20
2019-01-12T00:33:22.815Z,5.50
2019-01-12T00:35:51.243Z,5.70
2019-01-12T00:38:19.813Z,4.93
2019-01-12T00:40:48.260Z,6.23
2019-01-12T00:43:16.776Z,5.70
2019-01-12T00:45:45.254Z,6.43
2019-01-12T00:48:13.699Z,6.03
2019-01-12T00:50:42.217Z,5.43
2019-01-12T00:53:10.665Z,6.00
2019-01-12T00:55:39.144Z,5.07
2019-01-12T00:58:07.614Z,5.30
2019-01-12T01:00:36.040Z,5.93
2019-01-12T01:03:04.620Z,5.03
2019-01-12T01:05:33.100Z,5.83
2019-01-12T01:08:01.525Z,5.40
2019-01-12T01:10:30.063Z,4.80
2019-01-12T01:12:58.508Z,5.30
2019-01-12T01:15:26.971Z,6.17
2019-01-12T01:17:55.433Z,5.27
2019-01-12T01:20:23.952Z,5.73
2019-01-12T01:22:52.568Z,5.93
2019-01-12T01:25:21.050Z,6.00
2019-01-12T01:27:49.445Z,5.50
2019-01-12T01:30:19.172Z,5.50
2019-01-12T01:32:47.718Z,6.47
2019-01-12T01:35:16.302Z,4.50
2019-01-12T01:37:44.887Z,5.13
2019-01-12T01:40:15.415Z,5.00
2019-01-12T01:42:43.999Z,4.90
2019-01-12T01:45:14.460Z,4.07
2019-01-12T01:47:42.976Z,5.53
2019-01-12T01:50:13.203Z,4.83
2019-01-12T01:52:41.708Z,5.47
2019-01-12T01:55:10.188Z,4.87
2019-01-12T01:57:38.775Z,5.10
2019-01-12T02:00:10.585Z,5.37
2019-01-12T02:02:39.116Z,5.53
2019-01-12T02:05:07.699Z,5.53
2019-01-12T02:07:36.146Z,5.33
2019-01-12T02:10:08.141Z,5.20
2019-01-12T02:12:36.592Z,5.43
2019-01-12T02:15:08.264Z,5.30
2019-01-12T02:17:36.761Z,5.23
2019-01-12T02:20:05.728Z,5.07
2019-01-12T02:22:34.232Z,5.03
2019-01-12T02:25:02.815Z,5.07
2019-01-12T02:27:31.297Z,5.33
2019-01-12T02:29:59.777Z,4.73
2019-01-12T02:32:28.357Z,5.60
2019-01-12T02:34:56.808Z,4.03
2019-01-12T02:37:25.323Z,4.13
2019-01-12T02:39:53.800Z,4.57
2019-01-12T02:42:22.262Z,4.57
2019-01-12T02:44:50.770Z,5.37
2019-01-12T02:47:19.242Z,4.63
2019-01-12T02:49:47.726Z,5.43
2019-01-12T02:52:16.171Z,5.13
2019-01-12T02:54:44.652Z,5.53
2019-01-12T02:57:13.168Z,6.10
2019-01-12T02:59:41.616Z,4.43
2019-01-12T03:02:10.148Z,4.73
2019-01-12T03:04:38.612Z,5.60
2019-01-12T03:07:07.090Z,4.77
2019-01-12T03:09:35.574Z,5.13
2019-01-12T03:12:04.153Z,4.73
2019-01-12T03:14:32.599Z,4.63
2019-01-12T03:17:01.119Z,5.33
2019-01-12T03:19:29.566Z,4.63
2019-01-12T03:21:58.085Z,5.77
2019-01-12T03:24:26.561Z,4.93
2019-01-12T03:26:55.037Z,4.57
2019-01-12T03:29:23.532Z,4.67
2019-01-12T03:31:52.100Z,4.57
2019-01-12T03:34:20.889Z,5.77
2019-01-12T03:36:49.477Z,5.30
2019-01-12T03:39:17.924Z,4.77
2019-01-12T03:41:46.397Z,5.33
2019-01-12T03:44:14.896Z,4.70
2019-01-12T03:46:43.363Z,4.73
2019-01-12T03:49:11.847Z,3.90
2019-01-12T03:54:17.559Z,3.87
2019-01-12T03:56:46.041Z,4.37
2019-01-12T03:59:14.446Z,4.33
2019-01-12T04:01:43.103Z,4.03
2019-01-12T04:04:11.529Z,5.00
2019-01-12T04:06:40.070Z,4.10
2019-01-12T04:09:08.678Z,5.00
2019-01-12T04:11:37.108Z,4.50
2019-01-12T04:14:05.688Z,5.20
2019-01-12T04:19:10.178Z,4.30
2019-01-12T04:21:38.627Z,4.10
2019-01-12T04:24:07.140Z,4.97
2019-01-12T04:26:35.584Z,4.97
2019-01-12T04:31:34.897Z,4.70
2019-01-12T04:34:03.415Z,3.33
2019-01-12T04:36:31.867Z,3.93
2019-01-12T04:39:00.357Z,3.93
2019-01-12T04:41:28.844Z,4.90
2019-01-12T04:43:57.440Z,4.07
2019-01-12T04:46:26.026Z,4.47
2019-01-12T04:48:54.590Z,4.23
2019-01-12T04:51:23.059Z,3.87
2019-01-12T04:53:51.674Z,4.53
2019-01-12T04:56:20.225Z,3.90
2019-01-12T04:58:48.738Z,3.90
2019-01-12T05:01:17.219Z,4.80
2019-01-12T05:03:45.665Z,3.87
2019-01-12T05:06:14.283Z,3.90
2019-01-12T05:08:42.828Z,3.93
2019-01-12T05:11:11.294Z,3.33
2019-01-12T05:13:39.808Z,4.13
2019-01-12T05:16:08.276Z,3.93
2019-01-12T05:18:36.787Z,3.27
2019-01-12T05:21:05.311Z,4.67
2019-01-12T05:23:33.794Z,4.10
2019-01-12T05:26:02.302Z,3.57
2019-01-12T05:28:30.809Z,3.80
2019-01-12T05:30:59.294Z,3.50
2019-01-12T05:33:27.751Z,3.63
2019-01-12T05:35:56.354Z,3.67
2019-01-12T05:38:24.837Z,3.10
2019-01-12T05:40:53.324Z,3.87
2019-01-12T05:43:21.766Z,3.50
2019-01-12T05:45:50.280Z,3.90
2019-01-12T05:48:18.716Z,3.67
2019-01-12T05:50:47.154Z,4.23
2019-01-12T05:53:15.726Z,4.07
2019-01-12T05:55:44.200Z,4.13
2019-01-12T05:58:12.684Z,3.77
2019-01-12T06:00:41.267Z,4.03
2019-01-12T06:03:09.817Z,3.83
2019-01-12T06:05:38.432Z,4.03
2019-01-12T06:08:06.880Z,3.67
2019-01-12T06:10:35.364Z,3.43
2019-01-12T06:13:03.851Z,4.20
2019-01-12T06:15:32.329Z,3.30
2019-01-12T06:18:00.837Z,3.83
2019-01-12T06:20:29.318Z,4.13
2019-01-12T06:22:57.762Z,3.00
2019-01-12T06:25:26.282Z,4.20
2019-01-12T06:27:54.761Z,4.77
2019-01-12T06:30:23.241Z,4.47
2019-01-12T06:32:51.723Z,3.70
2019-01-12T06:35:20.200Z,4.03
2019-01-12T06:37:48.745Z,4.17
2019-01-12T06:40:17.574Z,4.53
2019-01-12T06:42:46.124Z,4.17
2019-01-12T06:45:16.318Z,3.90
2019-01-12T06:47:44.823Z,4.00
2019-01-12T06:50:15.520Z,4.57
2019-01-12T06:52:44.176Z,4.07
2019-01-12T06:55:12.861Z,5.83
2019-01-12T06:57:41.279Z,3.47
2019-01-12T07:00:15.344Z,3.70
2019-01-12T07:02:43.805Z,5.17
2019-01-12T07:05:12.315Z,3.70
2019-01-12T07:07:40.774Z,4.97
2019-01-12T07:10:14.545Z,4.07
2019-01-12T07:12:43.184Z,3.30
2019-01-12T07:15:13.243Z,3.87
2019-01-12T07:17:41.894Z,3.33
2019-01-12T07:20:12.881Z,3.80
2019-01-12T07:22:41.405Z,2.93
2019-01-12T07:25:09.863Z,3.50
2019-01-12T07:27:38.287Z,3.20
2019-01-12T07:30:14.459Z,3.07
2019-01-12T07:32:43.113Z,2.87
2019-01-12T07:35:11.521Z,3.00
2019-01-12T07:37:40.076Z,2.90
2019-01-12T07:40:09.083Z,3.30
2019-01-12T07:42:38.365Z,3.40
2019-01-12T07:45:09.256Z,3.07
2019-01-12T07:50:14.411Z,2.97
2019-01-12T07:52:43.168Z,3.17
2019-01-12T07:55:14.012Z,2.60
2019-01-12T07:57:44.871Z,3.07
2019-01-12T08:00:16.544Z,2.47
2019-01-12T08:02:45.598Z,2.50
2019-01-12T08:05:14.495Z,2.87
2019-01-12T08:07:43.361Z,2.57
2019-01-12T08:10:21.092Z,2.27
2019-01-12T08:12:50.075Z,1.83
2019-01-12T08:24:20.138Z,2.10
2019-01-12T08:26:49.230Z,1.63
2019-01-12T08:29:18.298Z,1.47
2019-01-12T08:31:47.176Z,1.03
2019-01-12T08:34:16.231Z,1.60
2019-01-12T08:36:45.652Z,1.40
2019-01-12T08:39:16.756Z,0.70
2019-01-12T08:41:47.560Z,0.83
2019-01-12T08:44:16.499Z,1.17
2019-01-12T08:46:45.584Z,1.17
2019-01-12T08:49:14.976Z,1.10
2019-01-12T08:51:44.087Z,1.40
2019-01-12T08:54:13.281Z,1.23
2019-01-12T08:59:32.397Z,1.73
2019-01-12T09:19:16.599Z,1.27
2019-01-12T09:21:45.814Z,1.40
2019-01-12T09:24:14.703Z,1.50
2019-01-12T09:26:44.946Z,2.17
2019-01-12T09:29:15.742Z,1.60
2019-01-12T09:31:44.628Z,1.73
2019-01-12T09:34:13.723Z,1.43
2019-01-12T09:36:42.851Z,1.50
2019-01-12T09:39:11.578Z,1.03
2019-01-12T09:41:40.507Z,1.50
2019-01-12T09:44:09.233Z,1.03
2019-01-12T09:46:39.710Z,1.60
2019-01-12T09:49:10.037Z,1.20
2019-01-12T09:51:39.096Z,1.10
2019-01-12T09:54:08.399Z,1.03
2019-01-12T09:56:39.037Z,1.33
2019-01-12T09:59:07.515Z,1.57
2019-01-12T10:01:36.327Z,0.97
2019-01-12T10:04:05.373Z,1.37
2019-01-12T10:06:35.797Z,1.13
2019-01-12T10:09:06.172Z,1.40
2019-01-12T10:11:34.730Z,1.00
2019-01-12T10:14:03.831Z,1.40
2019-01-12T10:16:32.301Z,1.10
2019-01-12T10:19:00.792Z,1.20
2019-01-12T10:21:29.922Z,1.50
2019-01-12T10:23:58.560Z,1.27
2019-01-12T10:26:27.694Z,1.20
2019-01-12T10:28:56.463Z,1.20
2019-01-12T10:31:26.014Z,1.20
2019-01-12T10:33:54.614Z,1.30
2019-01-12T10:36:24.265Z,1.30
2019-01-12T10:38:53.140Z,1.73
2019-01-12T10:41:22.087Z,1.07
2019-01-12T10:43:51.093Z,0.90
2019-01-12T10:46:20.433Z,1.10
2019-01-12T10:48:49.280Z,1.23
2019-01-12T10:51:18.989Z,1.17
2019-01-12T10:53:47.677Z,1.30
2019-01-12T10:56:17.476Z,1.30
2019-01-12T10:58:46.597Z,1.10
2019-01-12T11:01:16.666Z,1.43
2019-01-12T11:03:45.563Z,1.23
2019-01-12T11:06:16.573Z,1.50
2019-01-12T11:08:46.654Z,0.97
2019-01-12T11:11:15.104Z,1.60
2019-01-12T11:13:48.608Z,1.43
2019-01-12T11:16:19.138Z,1.43
2019-01-12T11:18:49.892Z,1.57
2019-01-12T11:21:20.220Z,1.30
2019-01-12T11:23:48.760Z,1.53
2019-01-12T11:26:17.275Z,1.40
2019-01-12T11:28:45.825Z,1.60
2019-01-12T11:31:19.738Z,1.23
2019-01-12T11:33:44.561Z,1.50
2019-01-12T11:36:13.008Z,1.20
2019-01-12T11:38:41.625Z,1.20
2019-01-12T11:41:10.128Z,1.13
2019-01-12T11:43:38.541Z,1.30
2019-01-12T11:46:07.272Z,1.10
2019-01-12T11:48:35.680Z,0.83
2019-01-12T11:51:08.031Z,1.00
2019-01-12T11:53:36.584Z,0.93
2019-01-12T11:56:11.492Z,0.97
2019-01-12T11:58:39.999Z,1.17
2019-01-12T12:01:08.464Z,0.83
2019-01-12T12:03:36.978Z,1.20
2019-01-12T12:06:05.460Z,0.80
2019-01-12T12:08:33.913Z,0.97
2019-01-12T12:11:02.422Z,1.03
2019-01-12T12:13:31.006Z,0.70
2019-01-12T12:15:59.996Z,0.90
2019-01-12T12:18:28.887Z,0.70
2019-01-12T12:20:57.571Z,0.90
2019-01-12T12:23:26.155Z,1.10
2019-01-12T12:25:55.275Z,1.00
2019-01-12T12:28:24.575Z,1.20
2019-01-12T12:30:53.762Z,0.93
2019-01-12T12:33:43.463Z,1.40
2019-01-12T12:36:12.521Z,1.10
2019-01-12T12:38:41.562Z,1.40
2019-01-12T12:41:10.507Z,1.40
2019-01-12T12:43:39.547Z,1.17
2019-01-12T12:46:08.494Z,1.37
2019-01-12T12:48:37.720Z,1.50
2019-01-12T12:51:06.927Z,1.60
2019-01-12T12:53:35.798Z,1.97
2019-01-12T12:56:05.053Z,1.53
2019-01-12T12:58:34.599Z,1.57
2019-01-12T13:01:04.044Z,1.30
2019-01-12T13:03:33.240Z,1.77
2019-01-12T13:06:02.586Z,1.83
2019-01-12T13:08:31.997Z,2.03
2019-01-12T13:11:04.291Z,1.60
2019-01-12T13:13:32.834Z,2.23
2019-01-12T13:16:01.487Z,2.07
2019-01-12T13:18:30.467Z,2.53
2019-01-12T13:20:59.512Z,2.47
2019-01-12T13:23:28.473Z,2.07
2019-01-12T13:25:57.431Z,2.30
2019-01-12T13:28:26.526Z,1.90
2019-01-12T13:30:55.617Z,2.20
2019-01-12T13:33:24.578Z,2.27
2019-01-12T13:35:53.923Z,2.57
2019-01-12T13:38:23.217Z,2.27
2019-01-12T13:40:52.270Z,2.23
2019-01-12T13:43:21.091Z,2.50
2019-01-12T13:45:50.074Z,2.60
2019-01-12T13:48:18.979Z,2.30
2019-01-12T13:50:48.137Z,2.20
2019-01-12T13:53:18.891Z,2.30
2019-01-12T13:55:49.486Z,2.33
2019-01-12T13:58:18.311Z,2.37
2019-01-12T14:00:47.342Z,1.97
2019-01-12T14:03:16.470Z,1.70
2019-01-12T14:05:45.605Z,3.33
2019-01-12T14:08:14.145Z,2.20
2019-01-12T14:11:03.932Z,2.53
2019-01-12T14:13:33.160Z,1.83
2019-01-12T14:16:02.215Z,2.57
2019-01-12T14:18:31.140Z,1.57
2019-01-12T14:20:59.835Z,2.57
2019-01-12T14:23:28.893Z,2.67
2019-01-12T14:25:57.962Z,2.70
2019-01-12T14:28:26.886Z,2.47
2019-01-12T14:30:55.889Z,2.93
2019-01-12T14:33:25.256Z,2.80
2019-01-12T14:35:55.381Z,2.43
2019-01-12T14:38:24.827Z,3.13
2019-01-12T14:40:53.721Z,2.93
2019-01-12T14:43:22.236Z,2.60
2019-01-12T14:45:51.563Z,2.67
2019-01-12T14:48:20.147Z,2.47
2019-01-12T14:50:50.577Z,2.77
2019-01-12T14:53:19.191Z,3.20
2019-01-12T14:55:47.668Z,2.83
2019-01-12T14:58:16.078Z,2.93
2019-01-12T15:00:48.548Z,2.60
2019-01-12T15:03:17.730Z,2.60
2019-01-12T15:05:46.517Z,2.90
2019-01-12T15:08:18.514Z,2.97
2019-01-12T15:10:47.751Z,2.83
2019-01-12T15:13:18.196Z,2.90
2019-01-12T15:15:47.399Z,2.63
2019-01-12T15:18:15.973Z,2.77
2019-01-12T15:20:44.862Z,3.33
2019-01-12T15:23:14.326Z,2.77
2019-01-12T15:25:47.416Z,3.83
2019-01-12T15:28:16.314Z,3.87
2019-01-12T15:30:45.248Z,3.40
2019-01-12T15:33:17.909Z,4.00
2019-01-12T15:35:46.902Z,3.77
2019-01-12T15:38:15.946Z,3.67
2019-01-12T15:40:44.492Z,3.73
2019-01-12T15:43:17.576Z,4.50
2019-01-12T15:45:46.911Z,3.83
2019-01-12T15:48:16.188Z,3.90
2019-01-12T15:50:46.572Z,4.43
2019-01-12T15:53:16.507Z,4.50
2019-01-12T15:55:45.601Z,4.47
2019-01-12T15:58:16.302Z,4.43
2019-01-12T16:16:56.151Z,3.70
2019-01-12T16:19:25.842Z,2.43
2019-01-12T16:21:57.185Z,2.90
2019-01-12T16:24:28.069Z,3.43
2019-01-12T16:26:57.137Z,3.87
2019-01-12T16:29:26.705Z,3.03
2019-01-12T16:31:55.765Z,2.87
2019-01-12T16:34:24.777Z,3.40
2019-01-12T16:36:53.697Z,3.43
2019-01-12T16:39:23.562Z,2.93
2019-01-12T16:41:52.521Z,3.70
2019-01-12T16:44:21.929Z,4.07
2019-01-12T16:46:51.011Z,4.00
2019-01-12T16:49:20.406Z,4.10
2019-01-12T16:51:49.912Z,4.33
2019-01-12T16:54:18.646Z,4.00
2019-01-12T16:56:47.974Z,4.00
2019-01-12T16:59:17.727Z,4.13
2019-01-12T17:01:47.627Z,3.83
2019-01-12T17:04:16.940Z,4.30
2019-01-12T17:06:45.728Z,3.90
2019-01-12T17:09:35.625Z,3.93
2019-01-12T17:12:04.217Z,4.00
2019-01-12T17:14:35.073Z,3.53
2019-01-12T17:17:05.668Z,4.27
2019-01-12T17:19:36.355Z,3.80
2019-01-12T17:22:05.539Z,4.90
2019-01-12T17:24:34.381Z,3.90
2019-01-12T17:27:03.460Z,4.30
2019-01-12T17:29:34.154Z,4.43
2019-01-12T17:32:03.631Z,4.87
2019-01-12T17:34:32.316Z,3.87
2019-01-12T17:37:01.238Z,4.33
2019-01-12T17:39:30.695Z,4.67
2019-01-12T17:41:59.910Z,4.40
2019-01-12T17:44:30.777Z,4.40
2019-01-12T17:47:00.354Z,4.50
2019-01-12T17:49:30.163Z,4.70
2019-01-12T17:51:59.308Z,5.33
2019-01-12T17:54:49.414Z,5.00
2019-01-12T17:57:20.214Z,5.27
2019-01-12T17:59:49.086Z,5.50
2019-01-12T18:02:19.630Z,4.93
2019-01-12T18:04:48.626Z,4.50
2019-01-12T18:07:18.997Z,5.07
2019-01-12T18:09:47.756Z,5.10
2019-01-12T18:12:17.448Z,4.83
2019-01-12T18:14:46.794Z,4.63
2019-01-12T18:17:16.125Z,4.57
2019-01-12T18:19:47.926Z,4.60
2019-01-12T18:22:16.897Z,4.40
2019-01-12T18:24:46.180Z,4.20
2019-01-12T18:27:14.970Z,4.17
2019-01-12T18:29:44.090Z,3.80
2019-01-12T18:32:13.179Z,4.23
2019-01-12T18:34:41.912Z,4.73
2019-01-12T18:37:10.857Z,4.03
2019-01-12T18:39:59.205Z,4.50
2019-01-12T18:42:28.609Z,4.50
2019-01-12T18:44:57.630Z,4.20
2019-01-12T18:47:26.677Z,4.10
2019-01-12T18:49:57.291Z,3.90
2019-01-12T18:52:26.674Z,4.53
2019-01-12T18:54:56.038Z,3.77
2019-01-12T18:57:25.222Z,4.57
2019-01-12T18:59:53.993Z,4.37
2019-01-12T19:02:23.235Z,4.37
2019-01-12T19:04:53.365Z,4.10
2019-01-12T19:07:22.734Z,3.83
2019-01-12T19:09:52.953Z,4.00
2019-01-12T19:12:22.690Z,3.67
2019-01-12T19:14:52.805Z,3.50
2019-01-12T19:17:22.700Z,4.43
2019-01-12T19:19:51.852Z,3.13
2019-01-12T19:22:21.585Z,3.27
2019-01-12T19:24:51.355Z,4.50
2019-01-12T19:27:20.516Z,2.93
2019-01-12T19:29:50.341Z,3.40
2019-01-12T19:32:20.852Z,3.30
2019-01-12T19:34:50.747Z,2.93
2019-01-12T19:37:20.990Z,3.53
2019-01-12T19:39:50.746Z,3.10
2019-01-12T19:42:20.868Z,2.97
2019-01-12T19:44:52.901Z,2.93
2019-01-12T19:47:22.923Z,2.90
2019-01-12T19:49:52.635Z,3.07
2019-01-12T19:52:24.271Z,2.77
2019-01-12T19:54:55.510Z,2.80
2019-01-12T19:57:25.412Z,2.53
2019-01-12T20:00:00.540Z,2.80
2019-01-12T20:02:51.618Z,2.90
2019-01-12T20:05:21.756Z,2.77
2019-01-12T20:07:51.916Z,2.40
2019-01-12T20:10:24.108Z,2.87
2019-01-12T20:12:55.050Z,2.67
2019-01-12T20:15:27.265Z,3.10
2019-01-12T20:18:17.909Z,2.73
2019-01-12T20:20:48.085Z,2.87
2019-01-12T20:23:18.266Z,3.07
2019-01-12T20:25:48.577Z,2.43
2019-01-12T20:28:18.569Z,2.70
2019-01-12T20:31:03.084Z,2.80
2019-01-12T20:33:47.881Z,2.60
2019-01-12T20:36:35.823Z,2.67
2019-01-12T20:39:11.389Z,1.73
2019-01-12T20:41:53.170Z,2.37
2019-01-12T20:44:37.571Z,2.43
2019-01-12T20:47:19.743Z,2.10
2019-01-12T20:49:52.132Z,2.30
2019-01-12T20:52:43.754Z,2.20
2019-01-12T20:55:19.670Z,2.07
2019-01-12T20:58:07.933Z,2.00
2019-01-12T21:00:56.560Z,1.50
2019-01-12T21:03:52.381Z,1.47
2019-01-12T21:06:37.318Z,1.80
2019-01-12T21:09:12.733Z,1.67
2019-01-12T21:12:22.456Z,1.77
2019-01-12T21:14:55.545Z,1.53
2019-01-12T21:17:24.995Z,1.80
2019-01-12T21:19:55.076Z,2.10
2019-01-12T21:22:23.910Z,1.87
2019-01-12T21:24:55.486Z,2.03
2019-01-12T21:27:25.851Z,2.00
2019-01-12T21:44:22.160Z,1.90
2019-01-12T21:46:50.939Z,1.80
2019-01-12T22:06:42.265Z,1.70
2019-01-12T22:09:10.876Z,1.40
2019-01-12T22:55:35.301Z,1.30
2019-01-12T22:58:03.808Z,0.97
2019-01-12T23:00:39.755Z,1.13
2019-01-12T23:03:08.268Z,1.37
2019-01-12T23:05:37.332Z,1.50
2019-01-12T23:08:05.880Z,1.40
2019-01-12T23:13:10.233Z,1.60
2019-01-12T23:15:38.679Z,1.40
2019-01-12T23:18:07.314Z,1.20
2019-01-12T23:20:35.860Z,1.20
2019-01-12T23:23:04.458Z,1.40
2019-01-12T23:25:33.888Z,1.27
2019-01-12T23:28:02.949Z,1.10
2019-01-12T23:30:31.400Z,1.77
2019-01-12T23:33:00.017Z,1.60
2019-01-12T23:35:28.574Z,1.43
2019-01-12T23:37:57.152Z,1.53
2019-01-12T23:40:25.666Z,1.10
2019-01-12T23:42:54.253Z,1.60
2019-01-12T23:45:22.697Z,1.40
2019-01-12T23:47:51.212Z,1.20
2019-01-12T23:50:19.696Z,1.17
2019-01-12T23:52:48.275Z,1.50
2019-01-12T23:55:16.735Z,1.30
2019-01-12T23:57:45.159Z,1.20
